sensor_id;sensor_type;location;lat;lon;timestamp;P1;durP1;ratioP1;P2;durP2;ratioP2
76403;SDS011;65232;48.358;2.122;2024-02-16T00:00:14;4.93;;;3.00;;
76403;SDS011;65232;48.358;2.122;2024-02-16T00:00:41;6.63;;;2.67;;
76403;SDS011;65232;48.358;2.122;2024-02-16T00:01:09;5.75;;;2.55;;
76403;SDS011;65232;48.358;2.122;2024-02-16T00:01:34;3.72;;;2.65;;
76403;SDS011;65232;48.358;2.122;2024-02-16T00:02:01;3.60;;;2.58;;
76403;SDS011;65232;48.358;2.122;2024-02-16T00:02:27;3.92;;;2.30;;
76403;SDS011;65232;48.358;2.122;2024-02-16T00:02:52;5.28;;;2.85;;
76403;SDS011;65232;48.358;2.122;2024-02-16T00:03:18;4.78;;;2.80;;
76403;SDS011;65232;48.358;2.122;2024-02-16T00:03:43;3.55;;;2.80;;
76403;SDS011;65232;48.358;2.122;2024-02-16T00:04:08;3.92;;;2.63;;
76403;SDS011;65232;48.358;2.122;2024-02-16T00:04:34;4.82;;;2.50;;
76403;SDS011;65232;48.358;2.122;2024-02-16T00:04:59;4.30;;;2.70;;
76403;SDS011;65232;48.358;2.122;2024-02-16T00:05:25;3.47;;;2.40;;
76403;SDS011;65232;48.358;2.122;2024-02-16T00:05:50;4.18;;;2.40;;
76403;SDS011;65232;48.358;2.122;2024-02-16T00:06:16;5.55;;;2.92;;
76403;SDS011;65232;48.358;2.122;2024-02-16T00:06:41;4.00;;;2.38;;
76403;SDS011;65232;48.358;2.122;2024-02-16T00:07:07;5.32;;;2.28;;
76403;SDS011;65232;48.358;2.122;2024-02-16T00:07:33;4.72;;;2.72;;
76403;SDS011;65232;48.358;2.122;2024-02-16T00:07:59;4.95;;;2.80;;
76403;SDS011;65232;48.358;2.122;2024-02-16T00:08:24;3.47;;;2.50;;
76403;SDS011;65232;48.358;2.122;2024-02-16T00:08:50;3.58;;;2.20;;
76403;SDS011;65232;48.358;2.122;2024-02-16T00:09:15;3.42;;;2.40;;
76403;SDS011;65232;48.358;2.122;2024-02-16T00:09:41;5.55;;;2.50;;
76403;SDS011;65232;48.358;2.122;2024-02-16T00:10:07;4.45;;;2.47;;
76403;SDS011;65232;48.358;2.122;2024-02-16T00:10:34;4.75;;;2.60;;
76403;SDS011;65232;48.358;2.122;2024-02-16T00:10:59;3.67;;;2.58;;
76403;SDS011;65232;48.358;2.122;2024-02-16T00:11:24;5.55;;;3.00;;
76403;SDS011;65232;48.358;2.122;2024-02-16T00:11:50;5.18;;;2.85;;
76403;SDS011;65232;48.358;2.122;2024-02-16T00:12:17;5.40;;;2.70;;
76403;SDS011;65232;48.358;2.122;2024-02-16T00:12:43;4.68;;;2.65;;
76403;SDS011;65232;48.358;2.122;2024-02-16T00:13:08;5.03;;;2.55;;
76403;SDS011;65232;48.358;2.122;2024-02-16T00:13:33;6.55;;;3.00;;
76403;SDS011;65232;48.358;2.122;2024-02-16T00:13:59;4.35;;;2.88;;
76403;SDS011;65232;48.358;2.122;2024-02-16T00:14:25;4.75;;;2.90;;
76403;SDS011;65232;48.358;2.122;2024-02-16T00:14:50;5.45;;;3.10;;
76403;SDS011;65232;48.358;2.122;2024-02-16T00:15:16;4.82;;;2.95;;
76403;SDS011;65232;48.358;2.122;2024-02-16T00:15:41;5.03;;;2.95;;
76403;SDS011;65232;48.358;2.122;2024-02-16T00:16:07;5.88;;;3.22;;
76403;SDS011;65232;48.358;2.122;2024-02-16T00:16:32;3.85;;;2.90;;
76403;SDS011;65232;48.358;2.122;2024-02-16T00:16:58;4.97;;;3.00;;
76403;SDS011;65232;48.358;2.122;2024-02-16T00:17:23;4.50;;;2.80;;
76403;SDS011;65232;48.358;2.122;2024-02-16T00:17:51;5.22;;;2.65;;
76403;SDS011;65232;48.358;2.122;2024-02-16T00:18:17;3.75;;;2.50;;
76403;SDS011;65232;48.358;2.122;2024-02-16T00:18:42;5.28;;;2.50;;
76403;SDS011;65232;48.358;2.122;2024-02-16T00:19:07;4.32;;;2.47;;
76403;SDS011;65232;48.358;2.122;2024-02-16T00:19:33;4.22;;;2.67;;
76403;SDS011;65232;48.358;2.122;2024-02-16T00:19:58;4.78;;;2.70;;
76403;SDS011;65232;48.358;2.122;2024-02-16T00:20:24;5.03;;;2.78;;
76403;SDS011;65232;48.358;2.122;2024-02-16T00:20:50;5.13;;;3.20;;
76403;SDS011;65232;48.358;2.122;2024-02-16T00:21:15;5.07;;;3.13;;
76403;SDS011;65232;48.358;2.122;2024-02-16T00:21:41;4.45;;;2.70;;
76403;SDS011;65232;48.358;2.122;2024-02-16T00:22:07;5.57;;;3.38;;
76403;SDS011;65232;48.358;2.122;2024-02-16T00:22:33;4.53;;;2.92;;
76403;SDS011;65232;48.358;2.122;2024-02-16T00:22:59;4.80;;;3.22;;
76403;SDS011;65232;48.358;2.122;2024-02-16T00:23:25;6.78;;;3.22;;
76403;SDS011;65232;48.358;2.122;2024-02-16T00:23:50;4.93;;;3.15;;
76403;SDS011;65232;48.358;2.122;2024-02-16T00:24:16;5.78;;;3.20;;
76403;SDS011;65232;48.358;2.122;2024-02-16T00:24:41;5.88;;;3.25;;
76403;SDS011;65232;48.358;2.122;2024-02-16T00:25:07;3.97;;;2.65;;
76403;SDS011;65232;48.358;2.122;2024-02-16T00:25:32;6.18;;;3.30;;
76403;SDS011;65232;48.358;2.122;2024-02-16T00:25:58;4.22;;;2.85;;
76403;SDS011;65232;48.358;2.122;2024-02-16T00:26:23;4.32;;;3.03;;
76403;SDS011;65232;48.358;2.122;2024-02-16T00:26:49;4.65;;;2.45;;
76403;SDS011;65232;48.358;2.122;2024-02-16T00:27:14;4.25;;;2.42;;
76403;SDS011;65232;48.358;2.122;2024-02-16T00:27:40;6.28;;;3.17;;
76403;SDS011;65232;48.358;2.122;2024-02-16T00:28:06;4.50;;;2.67;;
76403;SDS011;65232;48.358;2.122;2024-02-16T00:28:31;5.47;;;2.83;;
76403;SDS011;65232;48.358;2.122;2024-02-16T00:28:56;6.22;;;2.90;;
76403;SDS011;65232;48.358;2.122;2024-02-16T00:29:22;4.53;;;2.78;;
76403;SDS011;65232;48.358;2.122;2024-02-16T00:29:48;4.82;;;3.00;;
76403;SDS011;65232;48.358;2.122;2024-02-16T00:30:13;4.82;;;3.00;;
76403;SDS011;65232;48.358;2.122;2024-02-16T00:30:40;5.47;;;2.65;;
76403;SDS011;65232;48.358;2.122;2024-02-16T00:31:06;3.97;;;2.35;;
76403;SDS011;65232;48.358;2.122;2024-02-16T00:31:32;5.00;;;2.70;;
76403;SDS011;65232;48.358;2.122;2024-02-16T00:31:57;3.92;;;2.78;;
76403;SDS011;65232;48.358;2.122;2024-02-16T00:32:24;6.22;;;2.90;;
76403;SDS011;65232;48.358;2.122;2024-02-16T00:32:54;4.20;;;2.80;;
76403;SDS011;65232;48.358;2.122;2024-02-16T00:33:20;5.22;;;2.85;;
76403;SDS011;65232;48.358;2.122;2024-02-16T00:33:45;6.82;;;3.08;;
76403;SDS011;65232;48.358;2.122;2024-02-16T00:34:10;3.60;;;2.58;;
76403;SDS011;65232;48.358;2.122;2024-02-16T00:34:36;3.08;;;2.72;;
76403;SDS011;65232;48.358;2.122;2024-02-16T00:35:02;5.47;;;2.67;;
76403;SDS011;65232;48.358;2.122;2024-02-16T00:35:28;4.70;;;2.88;;
76403;SDS011;65232;48.358;2.122;2024-02-16T00:35:58;3.75;;;2.75;;
76403;SDS011;65232;48.358;2.122;2024-02-16T00:36:23;5.90;;;2.80;;
76403;SDS011;65232;48.358;2.122;2024-02-16T00:36:50;6.45;;;3.13;;
76403;SDS011;65232;48.358;2.122;2024-02-16T00:37:17;5.43;;;2.78;;
76403;SDS011;65232;48.358;2.122;2024-02-16T00:37:42;4.53;;;2.70;;
76403;SDS011;65232;48.358;2.122;2024-02-16T00:38:08;4.07;;;2.83;;
76403;SDS011;65232;48.358;2.122;2024-02-16T00:38:33;5.18;;;3.10;;
76403;SDS011;65232;48.358;2.122;2024-02-16T00:38:59;5.10;;;2.63;;
76403;SDS011;65232;48.358;2.122;2024-02-16T00:39:25;4.88;;;2.88;;
76403;SDS011;65232;48.358;2.122;2024-02-16T00:39:50;6.40;;;3.10;;
76403;SDS011;65232;48.358;2.122;2024-02-16T00:40:17;5.07;;;3.20;;
76403;SDS011;65232;48.358;2.122;2024-02-16T00:40:42;5.47;;;3.13;;
76403;SDS011;65232;48.358;2.122;2024-02-16T00:41:16;3.65;;;2.85;;
76403;SDS011;65232;48.358;2.122;2024-02-16T00:41:44;5.00;;;3.20;;
76403;SDS011;65232;48.358;2.122;2024-02-16T00:42:11;4.57;;;2.88;;
76403;SDS011;65232;48.358;2.122;2024-02-16T00:42:36;5.05;;;2.83;;
76403;SDS011;65232;48.358;2.122;2024-02-16T00:43:02;4.97;;;3.10;;
76403;SDS011;65232;48.358;2.122;2024-02-16T00:43:28;5.95;;;2.58;;
76403;SDS011;65232;48.358;2.122;2024-02-16T00:43:53;4.75;;;2.67;;
76403;SDS011;65232;48.358;2.122;2024-02-16T00:44:19;4.05;;;2.50;;
76403;SDS011;65232;48.358;2.122;2024-02-16T00:44:44;4.40;;;2.20;;
76403;SDS011;65232;48.358;2.122;2024-02-16T00:45:10;4.07;;;2.65;;
76403;SDS011;65232;48.358;2.122;2024-02-16T00:45:36;4.05;;;2.65;;
76403;SDS011;65232;48.358;2.122;2024-02-16T00:46:03;3.50;;;2.58;;
76403;SDS011;65232;48.358;2.122;2024-02-16T00:46:28;4.25;;;2.70;;
76403;SDS011;65232;48.358;2.122;2024-02-16T00:46:54;4.43;;;2.60;;
76403;SDS011;65232;48.358;2.122;2024-02-16T00:47:19;4.05;;;2.55;;
76403;SDS011;65232;48.358;2.122;2024-02-16T00:47:45;4.55;;;2.55;;
76403;SDS011;65232;48.358;2.122;2024-02-16T00:48:11;5.07;;;2.30;;
76403;SDS011;65232;48.358;2.122;2024-02-16T00:48:36;5.82;;;3.00;;
76403;SDS011;65232;48.358;2.122;2024-02-16T00:49:01;3.63;;;2.28;;
76403;SDS011;65232;48.358;2.122;2024-02-16T00:49:27;4.47;;;2.35;;
76403;SDS011;65232;48.358;2.122;2024-02-16T00:49:52;3.88;;;2.13;;
76403;SDS011;65232;48.358;2.122;2024-02-16T00:50:18;5.07;;;2.50;;
76403;SDS011;65232;48.358;2.122;2024-02-16T00:50:43;3.08;;;2.33;;
76403;SDS011;65232;48.358;2.122;2024-02-16T00:51:09;3.88;;;2.35;;
76403;SDS011;65232;48.358;2.122;2024-02-16T00:51:34;4.85;;;2.70;;
76403;SDS011;65232;48.358;2.122;2024-02-16T00:52:00;4.43;;;2.25;;
76403;SDS011;65232;48.358;2.122;2024-02-16T00:52:26;3.50;;;2.53;;
76403;SDS011;65232;48.358;2.122;2024-02-16T00:52:52;3.17;;;2.03;;
76403;SDS011;65232;48.358;2.122;2024-02-16T00:53:17;4.28;;;2.10;;
76403;SDS011;65232;48.358;2.122;2024-02-16T00:53:44;4.90;;;2.00;;
76403;SDS011;65232;48.358;2.122;2024-02-16T00:54:09;4.05;;;2.58;;
76403;SDS011;65232;48.358;2.122;2024-02-16T00:54:35;3.53;;;2.20;;
76403;SDS011;65232;48.358;2.122;2024-02-16T00:55:00;3.72;;;2.42;;
76403;SDS011;65232;48.358;2.122;2024-02-16T00:55:25;3.92;;;2.55;;
76403;SDS011;65232;48.358;2.122;2024-02-16T00:55:51;4.60;;;2.35;;
76403;SDS011;65232;48.358;2.122;2024-02-16T00:56:16;5.63;;;2.70;;
76403;SDS011;65232;48.358;2.122;2024-02-16T00:56:41;4.90;;;2.30;;
76403;SDS011;65232;48.358;2.122;2024-02-16T00:57:07;4.93;;;2.55;;
76403;SDS011;65232;48.358;2.122;2024-02-16T00:57:32;4.20;;;2.30;;
76403;SDS011;65232;48.358;2.122;2024-02-16T00:57:59;6.22;;;2.47;;
76403;SDS011;65232;48.358;2.122;2024-02-16T00:58:24;5.70;;;2.42;;
76403;SDS011;65232;48.358;2.122;2024-02-16T00:58:50;4.03;;;2.38;;
76403;SDS011;65232;48.358;2.122;2024-02-16T00:59:15;3.63;;;2.45;;
76403;SDS011;65232;48.358;2.122;2024-02-16T00:59:41;3.22;;;2.17;;
76403;SDS011;65232;48.358;2.122;2024-02-16T01:00:07;3.42;;;2.25;;
76403;SDS011;65232;48.358;2.122;2024-02-16T01:00:34;3.15;;;2.10;;
76403;SDS011;65232;48.358;2.122;2024-02-16T01:01:00;4.50;;;2.38;;
76403;SDS011;65232;48.358;2.122;2024-02-16T01:01:26;3.88;;;2.42;;
76403;SDS011;65232;48.358;2.122;2024-02-16T01:01:51;3.30;;;2.05;;
76403;SDS011;65232;48.358;2.122;2024-02-16T01:02:16;4.40;;;2.47;;
76403;SDS011;65232;48.358;2.122;2024-02-16T01:02:42;4.63;;;1.90;;
76403;SDS011;65232;48.358;2.122;2024-02-16T01:03:07;4.60;;;2.13;;
76403;SDS011;65232;48.358;2.122;2024-02-16T01:03:33;4.78;;;2.08;;
76403;SDS011;65232;48.358;2.122;2024-02-16T01:03:58;3.33;;;2.03;;
76403;SDS011;65232;48.358;2.122;2024-02-16T01:04:23;6.30;;;2.20;;
76403;SDS011;65232;48.358;2.122;2024-02-16T01:04:49;2.88;;;1.90;;
76403;SDS011;65232;48.358;2.122;2024-02-16T01:05:15;3.80;;;2.03;;
76403;SDS011;65232;48.358;2.122;2024-02-16T01:05:42;2.97;;;2.03;;
76403;SDS011;65232;48.358;2.122;2024-02-16T01:06:08;4.25;;;2.33;;
76403;SDS011;65232;48.358;2.122;2024-02-16T01:06:36;3.45;;;2.45;;
76403;SDS011;65232;48.358;2.122;2024-02-16T01:07:02;3.30;;;2.30;;
76403;SDS011;65232;48.358;2.122;2024-02-16T01:07:28;3.90;;;2.08;;
76403;SDS011;65232;48.358;2.122;2024-02-16T01:07:54;4.20;;;2.22;;
76403;SDS011;65232;48.358;2.122;2024-02-16T01:08:19;3.65;;;2.25;;
76403;SDS011;65232;48.358;2.122;2024-02-16T01:08:44;5.55;;;2.30;;
76403;SDS011;65232;48.358;2.122;2024-02-16T01:09:11;4.15;;;2.35;;
76403;SDS011;65232;48.358;2.122;2024-02-16T01:09:38;3.88;;;2.35;;
76403;SDS011;65232;48.358;2.122;2024-02-16T01:10:03;4.88;;;2.13;;
76403;SDS011;65232;48.358;2.122;2024-02-16T01:10:29;5.30;;;2.33;;
76403;SDS011;65232;48.358;2.122;2024-02-16T01:10:55;4.53;;;2.20;;
76403;SDS011;65232;48.358;2.122;2024-02-16T01:11:20;3.65;;;2.13;;
76403;SDS011;65232;48.358;2.122;2024-02-16T01:11:46;4.72;;;2.20;;
76403;SDS011;65232;48.358;2.122;2024-02-16T01:12:11;4.35;;;2.13;;
76403;SDS011;65232;48.358;2.122;2024-02-16T01:12:37;2.90;;;1.98;;
76403;SDS011;65232;48.358;2.122;2024-02-16T01:13:02;5.93;;;2.55;;
76403;SDS011;65232;48.358;2.122;2024-02-16T01:13:28;3.83;;;2.30;;
76403;SDS011;65232;48.358;2.122;2024-02-16T01:13:54;3.50;;;2.17;;
76403;SDS011;65232;48.358;2.122;2024-02-16T01:14:19;5.25;;;2.40;;
76403;SDS011;65232;48.358;2.122;2024-02-16T01:14:45;3.72;;;2.17;;
76403;SDS011;65232;48.358;2.122;2024-02-16T01:15:10;3.75;;;2.10;;
76403;SDS011;65232;48.358;2.122;2024-02-16T01:15:36;4.20;;;2.47;;
76403;SDS011;65232;48.358;2.122;2024-02-16T01:16:06;3.85;;;2.22;;
76403;SDS011;65232;48.358;2.122;2024-02-16T01:16:32;3.20;;;2.35;;
76403;SDS011;65232;48.358;2.122;2024-02-16T01:16:58;3.13;;;2.08;;
76403;SDS011;65232;48.358;2.122;2024-02-16T01:17:23;4.57;;;2.50;;
76403;SDS011;65232;48.358;2.122;2024-02-16T01:17:48;3.78;;;2.35;;
76403;SDS011;65232;48.358;2.122;2024-02-16T01:18:14;3.45;;;2.10;;
76403;SDS011;65232;48.358;2.122;2024-02-16T01:18:40;4.72;;;2.63;;
76403;SDS011;65232;48.358;2.122;2024-02-16T01:19:06;4.93;;;2.60;;
76403;SDS011;65232;48.358;2.122;2024-02-16T01:19:58;5.03;;;2.05;;
76403;SDS011;65232;48.358;2.122;2024-02-16T01:20:24;4.30;;;2.30;;
76403;SDS011;65232;48.358;2.122;2024-02-16T01:20:49;4.03;;;2.20;;
76403;SDS011;65232;48.358;2.122;2024-02-16T01:21:14;3.95;;;2.33;;
76403;SDS011;65232;48.358;2.122;2024-02-16T01:21:40;5.85;;;2.35;;
76403;SDS011;65232;48.358;2.122;2024-02-16T01:22:06;5.70;;;2.35;;
76403;SDS011;65232;48.358;2.122;2024-02-16T01:22:31;3.03;;;2.00;;
76403;SDS011;65232;48.358;2.122;2024-02-16T01:22:57;4.80;;;2.33;;
76403;SDS011;65232;48.358;2.122;2024-02-16T01:23:22;3.17;;;1.98;;
76403;SDS011;65232;48.358;2.122;2024-02-16T01:23:47;3.88;;;2.35;;
76403;SDS011;65232;48.358;2.122;2024-02-16T01:24:13;4.00;;;2.40;;
76403;SDS011;65232;48.358;2.122;2024-02-16T01:24:38;4.28;;;2.60;;
76403;SDS011;65232;48.358;2.122;2024-02-16T01:25:04;5.95;;;2.53;;
76403;SDS011;65232;48.358;2.122;2024-02-16T01:25:30;4.45;;;2.28;;
76403;SDS011;65232;48.358;2.122;2024-02-16T01:25:56;3.15;;;2.10;;
76403;SDS011;65232;48.358;2.122;2024-02-16T01:26:21;3.65;;;2.00;;
76403;SDS011;65232;48.358;2.122;2024-02-16T01:26:46;4.30;;;2.17;;
76403;SDS011;65232;48.358;2.122;2024-02-16T01:27:12;3.92;;;2.35;;
76403;SDS011;65232;48.358;2.122;2024-02-16T01:27:37;3.72;;;2.45;;
76403;SDS011;65232;48.358;2.122;2024-02-16T01:28:03;7.30;;;2.55;;
76403;SDS011;65232;48.358;2.122;2024-02-16T01:28:28;3.95;;;2.47;;
76403;SDS011;65232;48.358;2.122;2024-02-16T01:28:54;3.88;;;2.20;;
76403;SDS011;65232;48.358;2.122;2024-02-16T01:29:19;4.47;;;2.40;;
76403;SDS011;65232;48.358;2.122;2024-02-16T01:29:44;4.55;;;2.30;;
76403;SDS011;65232;48.358;2.122;2024-02-16T01:30:10;5.95;;;2.60;;
76403;SDS011;65232;48.358;2.122;2024-02-16T01:30:35;4.35;;;2.20;;
76403;SDS011;65232;48.358;2.122;2024-02-16T01:31:01;3.00;;;1.88;;
76403;SDS011;65232;48.358;2.122;2024-02-16T01:31:27;5.63;;;2.17;;
76403;SDS011;65232;48.358;2.122;2024-02-16T01:31:52;4.05;;;2.28;;
76403;SDS011;65232;48.358;2.122;2024-02-16T01:32:17;3.15;;;2.28;;
76403;SDS011;65232;48.358;2.122;2024-02-16T01:32:43;3.83;;;2.40;;
76403;SDS011;65232;48.358;2.122;2024-02-16T01:33:09;3.65;;;2.65;;
76403;SDS011;65232;48.358;2.122;2024-02-16T01:33:34;6.35;;;2.67;;
76403;SDS011;65232;48.358;2.122;2024-02-16T01:34:00;4.43;;;2.50;;
76403;SDS011;65232;48.358;2.122;2024-02-16T01:34:26;4.05;;;2.40;;
76403;SDS011;65232;48.358;2.122;2024-02-16T01:34:51;4.55;;;2.25;;
76403;SDS011;65232;48.358;2.122;2024-02-16T01:35:17;4.72;;;2.33;;
76403;SDS011;65232;48.358;2.122;2024-02-16T01:35:43;3.67;;;2.25;;
76403;SDS011;65232;48.358;2.122;2024-02-16T01:36:08;4.15;;;2.63;;
76403;SDS011;65232;48.358;2.122;2024-02-16T01:36:33;3.97;;;1.80;;
76403;SDS011;65232;48.358;2.122;2024-02-16T01:36:59;12.52;;;2.72;;
76403;SDS011;65232;48.358;2.122;2024-02-16T01:37:25;3.60;;;1.92;;
76403;SDS011;65232;48.358;2.122;2024-02-16T01:37:50;2.92;;;2.40;;
76403;SDS011;65232;48.358;2.122;2024-02-16T01:38:15;3.28;;;2.45;;
76403;SDS011;65232;48.358;2.122;2024-02-16T01:38:41;4.55;;;2.50;;
76403;SDS011;65232;48.358;2.122;2024-02-16T01:39:06;5.03;;;2.42;;
76403;SDS011;65232;48.358;2.122;2024-02-16T01:39:32;5.22;;;2.75;;
76403;SDS011;65232;48.358;2.122;2024-02-16T01:39:57;4.95;;;2.33;;
76403;SDS011;65232;48.358;2.122;2024-02-16T01:40:22;6.60;;;2.20;;
76403;SDS011;65232;48.358;2.122;2024-02-16T01:40:51;3.22;;;2.03;;
76403;SDS011;65232;48.358;2.122;2024-02-16T01:41:16;5.28;;;2.25;;
76403;SDS011;65232;48.358;2.122;2024-02-16T01:41:41;3.70;;;2.20;;
76403;SDS011;65232;48.358;2.122;2024-02-16T01:42:07;4.05;;;2.30;;
76403;SDS011;65232;48.358;2.122;2024-02-16T01:42:32;5.10;;;2.70;;
76403;SDS011;65232;48.358;2.122;2024-02-16T01:42:57;4.35;;;2.63;;
76403;SDS011;65232;48.358;2.122;2024-02-16T01:43:23;4.63;;;2.30;;
76403;SDS011;65232;48.358;2.122;2024-02-16T01:43:48;5.35;;;2.30;;
76403;SDS011;65232;48.358;2.122;2024-02-16T01:44:17;5.90;;;2.38;;
76403;SDS011;65232;48.358;2.122;2024-02-16T01:44:43;4.95;;;2.53;;
76403;SDS011;65232;48.358;2.122;2024-02-16T01:45:08;4.20;;;2.22;;
76403;SDS011;65232;48.358;2.122;2024-02-16T01:45:35;3.85;;;2.45;;
76403;SDS011;65232;48.358;2.122;2024-02-16T01:46:00;5.57;;;2.35;;
76403;SDS011;65232;48.358;2.122;2024-02-16T01:46:26;4.50;;;2.10;;
76403;SDS011;65232;48.358;2.122;2024-02-16T01:46:51;5.70;;;2.13;;
76403;SDS011;65232;48.358;2.122;2024-02-16T01:47:17;4.07;;;1.90;;
76403;SDS011;65232;48.358;2.122;2024-02-16T01:47:43;3.80;;;2.17;;
76403;SDS011;65232;48.358;2.122;2024-02-16T01:48:12;3.40;;;2.35;;
76403;SDS011;65232;48.358;2.122;2024-02-16T01:48:39;3.63;;;2.42;;
76403;SDS011;65232;48.358;2.122;2024-02-16T01:49:30;4.70;;;2.30;;
76403;SDS011;65232;48.358;2.122;2024-02-16T01:49:56;4.40;;;2.00;;
76403;SDS011;65232;48.358;2.122;2024-02-16T01:50:21;4.60;;;2.28;;
76403;SDS011;65232;48.358;2.122;2024-02-16T01:50:47;3.83;;;2.45;;
76403;SDS011;65232;48.358;2.122;2024-02-16T01:51:13;3.55;;;2.10;;
76403;SDS011;65232;48.358;2.122;2024-02-16T01:51:39;4.10;;;2.38;;
76403;SDS011;65232;48.358;2.122;2024-02-16T01:52:05;6.00;;;2.50;;
76403;SDS011;65232;48.358;2.122;2024-02-16T01:52:31;4.93;;;2.33;;
76403;SDS011;65232;48.358;2.122;2024-02-16T01:52:59;4.18;;;2.30;;
76403;SDS011;65232;48.358;2.122;2024-02-16T01:53:24;3.72;;;2.05;;
76403;SDS011;65232;48.358;2.122;2024-02-16T01:53:50;3.83;;;2.40;;
76403;SDS011;65232;48.358;2.122;2024-02-16T01:54:15;3.80;;;2.03;;
76403;SDS011;65232;48.358;2.122;2024-02-16T01:54:42;4.15;;;2.10;;
76403;SDS011;65232;48.358;2.122;2024-02-16T01:55:08;5.40;;;2.50;;
76403;SDS011;65232;48.358;2.122;2024-02-16T01:55:35;4.15;;;2.30;;
76403;SDS011;65232;48.358;2.122;2024-02-16T01:56:00;4.40;;;2.20;;
76403;SDS011;65232;48.358;2.122;2024-02-16T01:56:26;3.20;;;2.20;;
76403;SDS011;65232;48.358;2.122;2024-02-16T01:57:18;4.10;;;2.05;;
76403;SDS011;65232;48.358;2.122;2024-02-16T01:57:44;4.07;;;2.17;;
76403;SDS011;65232;48.358;2.122;2024-02-16T01:58:11;3.58;;;2.30;;
76403;SDS011;65232;48.358;2.122;2024-02-16T01:58:37;2.67;;;1.90;;
76403;SDS011;65232;48.358;2.122;2024-02-16T01:59:02;4.88;;;2.35;;
76403;SDS011;65232;48.358;2.122;2024-02-16T01:59:28;5.82;;;2.40;;
76403;SDS011;65232;48.358;2.122;2024-02-16T01:59:54;4.07;;;1.92;;
76403;SDS011;65232;48.358;2.122;2024-02-16T02:00:19;4.60;;;2.00;;
76403;SDS011;65232;48.358;2.122;2024-02-16T02:00:45;4.43;;;2.08;;
76403;SDS011;65232;48.358;2.122;2024-02-16T02:01:10;4.28;;;2.20;;
76403;SDS011;65232;48.358;2.122;2024-02-16T02:01:36;3.35;;;2.20;;
76403;SDS011;65232;48.358;2.122;2024-02-16T02:02:01;4.43;;;2.30;;
76403;SDS011;65232;48.358;2.122;2024-02-16T02:02:27;3.08;;;2.00;;
76403;SDS011;65232;48.358;2.122;2024-02-16T02:02:52;3.10;;;2.00;;
76403;SDS011;65232;48.358;2.122;2024-02-16T02:03:18;4.43;;;2.13;;
76403;SDS011;65232;48.358;2.122;2024-02-16T02:03:43;3.38;;;2.50;;
76403;SDS011;65232;48.358;2.122;2024-02-16T02:04:08;4.35;;;2.55;;
76403;SDS011;65232;48.358;2.122;2024-02-16T02:04:34;4.07;;;2.47;;
76403;SDS011;65232;48.358;2.122;2024-02-16T02:05:01;2.90;;;2.25;;
76403;SDS011;65232;48.358;2.122;2024-02-16T02:05:26;3.97;;;2.28;;
76403;SDS011;65232;48.358;2.122;2024-02-16T02:05:52;2.95;;;2.15;;
76403;SDS011;65232;48.358;2.122;2024-02-16T02:06:19;4.75;;;2.20;;
76403;SDS011;65232;48.358;2.122;2024-02-16T02:06:44;4.80;;;2.30;;
76403;SDS011;65232;48.358;2.122;2024-02-16T02:07:11;2.72;;;2.05;;
76403;SDS011;65232;48.358;2.122;2024-02-16T02:07:37;2.67;;;2.00;;
76403;SDS011;65232;48.358;2.122;2024-02-16T02:08:09;4.68;;;2.17;;
76403;SDS011;65232;48.358;2.122;2024-02-16T02:08:35;4.03;;;2.17;;
76403;SDS011;65232;48.358;2.122;2024-02-16T02:09:01;3.47;;;2.15;;
76403;SDS011;65232;48.358;2.122;2024-02-16T02:09:27;2.88;;;1.90;;
76403;SDS011;65232;48.358;2.122;2024-02-16T02:09:52;3.90;;;2.10;;
76403;SDS011;65232;48.358;2.122;2024-02-16T02:10:18;7.40;;;2.40;;
76403;SDS011;65232;48.358;2.122;2024-02-16T02:11:09;3.05;;;2.10;;
76403;SDS011;65232;48.358;2.122;2024-02-16T02:11:35;3.42;;;2.38;;
76403;SDS011;65232;48.358;2.122;2024-02-16T02:12:00;5.28;;;2.08;;
76403;SDS011;65232;48.358;2.122;2024-02-16T02:12:25;4.75;;;2.10;;
76403;SDS011;65232;48.358;2.122;2024-02-16T02:12:51;4.95;;;2.10;;
76403;SDS011;65232;48.358;2.122;2024-02-16T02:13:16;2.85;;;2.00;;
76403;SDS011;65232;48.358;2.122;2024-02-16T02:13:44;4.82;;;2.15;;
76403;SDS011;65232;48.358;2.122;2024-02-16T02:14:09;3.67;;;2.13;;
76403;SDS011;65232;48.358;2.122;2024-02-16T02:14:35;4.95;;;2.40;;
76403;SDS011;65232;48.358;2.122;2024-02-16T02:15:04;4.85;;;2.00;;
76403;SDS011;65232;48.358;2.122;2024-02-16T02:15:30;4.35;;;2.13;;
76403;SDS011;65232;48.358;2.122;2024-02-16T02:15:55;7.45;;;2.20;;
76403;SDS011;65232;48.358;2.122;2024-02-16T02:16:21;3.53;;;2.15;;
76403;SDS011;65232;48.358;2.122;2024-02-16T02:16:47;4.78;;;2.30;;
76403;SDS011;65232;48.358;2.122;2024-02-16T02:17:13;5.95;;;2.30;;
76403;SDS011;65232;48.358;2.122;2024-02-16T02:17:38;3.78;;;2.00;;
76403;SDS011;65232;48.358;2.122;2024-02-16T02:18:04;4.50;;;2.10;;
76403;SDS011;65232;48.358;2.122;2024-02-16T02:18:29;3.92;;;2.00;;
76403;SDS011;65232;48.358;2.122;2024-02-16T02:18:55;4.03;;;2.00;;
76403;SDS011;65232;48.358;2.122;2024-02-16T02:19:20;2.63;;;1.83;;
76403;SDS011;65232;48.358;2.122;2024-02-16T02:19:46;3.88;;;1.92;;
76403;SDS011;65232;48.358;2.122;2024-02-16T02:20:11;5.18;;;2.15;;
76403;SDS011;65232;48.358;2.122;2024-02-16T02:20:37;5.13;;;2.22;;
76403;SDS011;65232;48.358;2.122;2024-02-16T02:21:02;3.55;;;2.00;;
76403;SDS011;65232;48.358;2.122;2024-02-16T02:21:27;3.30;;;2.40;;
76403;SDS011;65232;48.358;2.122;2024-02-16T02:21:53;3.75;;;2.30;;
76403;SDS011;65232;48.358;2.122;2024-02-16T02:22:18;2.70;;;1.90;;
76403;SDS011;65232;48.358;2.122;2024-02-16T02:23:10;5.05;;;1.80;;
76403;SDS011;65232;48.358;2.122;2024-02-16T02:23:35;4.13;;;2.08;;
76403;SDS011;65232;48.358;2.122;2024-02-16T02:24:00;4.13;;;2.30;;
76403;SDS011;65232;48.358;2.122;2024-02-16T02:24:26;5.63;;;2.30;;
76403;SDS011;65232;48.358;2.122;2024-02-16T02:24:51;5.18;;;2.20;;
76403;SDS011;65232;48.358;2.122;2024-02-16T02:25:17;3.60;;;1.98;;
76403;SDS011;65232;48.358;2.122;2024-02-16T02:25:42;4.88;;;2.35;;
76403;SDS011;65232;48.358;2.122;2024-02-16T02:26:08;4.07;;;2.40;;
76403;SDS011;65232;48.358;2.122;2024-02-16T02:26:33;4.32;;;2.10;;
76403;SDS011;65232;48.358;2.122;2024-02-16T02:26:58;5.10;;;2.33;;
76403;SDS011;65232;48.358;2.122;2024-02-16T02:27:24;5.78;;;2.20;;
76403;SDS011;65232;48.358;2.122;2024-02-16T02:27:49;3.28;;;1.85;;
76403;SDS011;65232;48.358;2.122;2024-02-16T02:28:15;5.25;;;2.38;;
76403;SDS011;65232;48.358;2.122;2024-02-16T02:28:40;4.18;;;1.98;;
76403;SDS011;65232;48.358;2.122;2024-02-16T02:29:06;4.05;;;2.47;;
76403;SDS011;65232;48.358;2.122;2024-02-16T02:29:31;3.63;;;2.05;;
76403;SDS011;65232;48.358;2.122;2024-02-16T02:29:57;4.30;;;2.20;;
76403;SDS011;65232;48.358;2.122;2024-02-16T02:30:23;4.03;;;1.90;;
76403;SDS011;65232;48.358;2.122;2024-02-16T02:30:49;5.45;;;1.98;;
76403;SDS011;65232;48.358;2.122;2024-02-16T02:31:14;3.63;;;2.03;;
76403;SDS011;65232;48.358;2.122;2024-02-16T02:31:39;4.30;;;2.20;;
76403;SDS011;65232;48.358;2.122;2024-02-16T02:32:05;6.25;;;2.08;;
76403;SDS011;65232;48.358;2.122;2024-02-16T02:32:32;4.35;;;2.03;;
76403;SDS011;65232;48.358;2.122;2024-02-16T02:32:57;4.00;;;1.90;;
76403;SDS011;65232;48.358;2.122;2024-02-16T02:33:23;3.50;;;2.50;;
76403;SDS011;65232;48.358;2.122;2024-02-16T02:33:48;3.85;;;2.13;;
76403;SDS011;65232;48.358;2.122;2024-02-16T02:34:14;3.97;;;2.08;;
76403;SDS011;65232;48.358;2.122;2024-02-16T02:34:40;3.95;;;2.05;;
76403;SDS011;65232;48.358;2.122;2024-02-16T02:35:05;4.25;;;2.10;;
76403;SDS011;65232;48.358;2.122;2024-02-16T02:35:31;4.55;;;2.17;;
76403;SDS011;65232;48.358;2.122;2024-02-16T02:35:57;4.90;;;2.38;;
76403;SDS011;65232;48.358;2.122;2024-02-16T02:36:22;5.63;;;2.05;;
76403;SDS011;65232;48.358;2.122;2024-02-16T02:36:47;4.68;;;2.40;;
76403;SDS011;65232;48.358;2.122;2024-02-16T02:37:14;7.40;;;2.05;;
76403;SDS011;65232;48.358;2.122;2024-02-16T02:37:39;3.58;;;2.30;;